sensor_id;sensor_type;location;lat;lon;timestamp;P1;durP1;ratioP1;P2;durP2;ratioP2
73456;SDS011;61691;53.072;6.582;2023-07-31T00:01:43;15.40;;;3.97;;
73456;SDS011;61691;53.072;6.582;2023-07-31T00:04:10;14.00;;;3.25;;
73456;SDS011;61691;53.072;6.582;2023-07-31T00:06:36;13.25;;;3.42;;
73456;SDS011;61691;53.072;6.582;2023-07-31T00:09:04;14.95;;;3.30;;
73456;SDS011;61691;53.072;6.582;2023-07-31T00:11:31;16.15;;;4.10;;
73456;SDS011;61691;53.072;6.582;2023-07-31T00:13:58;12.02;;;3.22;;
73456;SDS011;61691;53.072;6.582;2023-07-31T00:16:25;13.55;;;3.42;;
73456;SDS011;61691;53.072;6.582;2023-07-31T00:18:52;13.52;;;3.33;;
73456;SDS011;61691;53.072;6.582;2023-07-31T00:21:18;13.95;;;3.30;;
73456;SDS011;61691;53.072;6.582;2023-07-31T00:23:45;14.25;;;3.90;;
73456;SDS011;61691;53.072;6.582;2023-07-31T00:26:12;14.63;;;4.00;;
73456;SDS011;61691;53.072;6.582;2023-07-31T00:28:39;15.80;;;3.70;;
73456;SDS011;61691;53.072;6.582;2023-07-31T00:31:05;14.25;;;3.65;;
73456;SDS011;61691;53.072;6.582;2023-07-31T00:33:34;14.13;;;3.40;;
73456;SDS011;61691;53.072;6.582;2023-07-31T00:36:01;13.43;;;3.83;;
73456;SDS011;61691;53.072;6.582;2023-07-31T00:38:27;13.95;;;3.38;;
73456;SDS011;61691;53.072;6.582;2023-07-31T00:40:54;15.02;;;3.63;;
73456;SDS011;61691;53.072;6.582;2023-07-31T00:43:21;14.48;;;3.63;;
73456;SDS011;61691;53.072;6.582;2023-07-31T00:45:48;13.10;;;3.40;;
73456;SDS011;61691;53.072;6.582;2023-07-31T00:48:15;14.75;;;3.88;;
73456;SDS011;61691;53.072;6.582;2023-07-31T00:50:41;12.57;;;3.28;;
73456;SDS011;61691;53.072;6.582;2023-07-31T00:53:08;14.93;;;3.30;;
73456;SDS011;61691;53.072;6.582;2023-07-31T00:55:35;13.07;;;3.38;;
73456;SDS011;61691;53.072;6.582;2023-07-31T00:58:02;12.07;;;3.10;;
73456;SDS011;61691;53.072;6.582;2023-07-31T01:00:28;13.82;;;3.50;;
73456;SDS011;61691;53.072;6.582;2023-07-31T01:02:55;12.38;;;3.28;;
73456;SDS011;61691;53.072;6.582;2023-07-31T01:05:29;10.88;;;3.10;;
73456;SDS011;61691;53.072;6.582;2023-07-31T01:10:50;11.98;;;3.00;;
73456;SDS011;61691;53.072;6.582;2023-07-31T01:13:22;11.48;;;3.10;;
73456;SDS011;61691;53.072;6.582;2023-07-31T01:15:49;12.23;;;3.20;;
73456;SDS011;61691;53.072;6.582;2023-07-31T01:18:16;14.73;;;3.17;;
73456;SDS011;61691;53.072;6.582;2023-07-31T01:20:43;13.07;;;3.47;;
73456;SDS011;61691;53.072;6.582;2023-07-31T01:26:24;12.73;;;2.92;;
73456;SDS011;61691;53.072;6.582;2023-07-31T01:31:27;10.35;;;2.75;;
73456;SDS011;61691;53.072;6.582;2023-07-31T01:33:57;10.55;;;2.60;;
73456;SDS011;61691;53.072;6.582;2023-07-31T01:39:01;8.05;;;2.30;;
73456;SDS011;61691;53.072;6.582;2023-07-31T01:41:28;9.73;;;2.40;;
73456;SDS011;61691;53.072;6.582;2023-07-31T01:43:55;7.38;;;1.90;;
73456;SDS011;61691;53.072;6.582;2023-07-31T01:46:22;7.55;;;1.90;;
73456;SDS011;61691;53.072;6.582;2023-07-31T01:48:49;6.88;;;1.85;;
73456;SDS011;61691;53.072;6.582;2023-07-31T01:51:15;7.40;;;2.00;;
73456;SDS011;61691;53.072;6.582;2023-07-31T01:53:42;6.43;;;1.80;;
73456;SDS011;61691;53.072;6.582;2023-07-31T01:56:09;8.75;;;1.80;;
73456;SDS011;61691;53.072;6.582;2023-07-31T01:58:35;5.13;;;1.73;;
73456;SDS011;61691;53.072;6.582;2023-07-31T02:01:02;4.95;;;1.60;;
73456;SDS011;61691;53.072;6.582;2023-07-31T02:03:29;4.32;;;1.63;;
73456;SDS011;61691;53.072;6.582;2023-07-31T02:05:56;5.70;;;1.80;;
73456;SDS011;61691;53.072;6.582;2023-07-31T02:08:23;4.95;;;1.73;;
73456;SDS011;61691;53.072;6.582;2023-07-31T02:10:49;5.57;;;1.60;;
73456;SDS011;61691;53.072;6.582;2023-07-31T02:13:16;2.53;;;1.20;;
73456;SDS011;61691;53.072;6.582;2023-07-31T02:15:43;5.03;;;1.63;;
73456;SDS011;61691;53.072;6.582;2023-07-31T02:18:11;3.60;;;1.05;;
73456;SDS011;61691;53.072;6.582;2023-07-31T02:20:38;3.33;;;1.30;;
73456;SDS011;61691;53.072;6.582;2023-07-31T02:23:04;3.20;;;1.20;;
73456;SDS011;61691;53.072;6.582;2023-07-31T02:25:31;2.42;;;0.98;;
73456;SDS011;61691;53.072;6.582;2023-07-31T02:27:58;5.13;;;1.48;;
73456;SDS011;61691;53.072;6.582;2023-07-31T02:30:25;1.50;;;0.82;;
73456;SDS011;61691;53.072;6.582;2023-07-31T02:32:51;4.55;;;1.30;;
73456;SDS011;61691;53.072;6.582;2023-07-31T02:35:18;5.85;;;1.27;;
73456;SDS011;61691;53.072;6.582;2023-07-31T02:37:45;2.83;;;1.10;;
73456;SDS011;61691;53.072;6.582;2023-07-31T02:40:12;3.38;;;1.20;;
73456;SDS011;61691;53.072;6.582;2023-07-31T02:42:39;8.38;;;1.30;;
73456;SDS011;61691;53.072;6.582;2023-07-31T02:45:06;2.15;;;1.00;;
73456;SDS011;61691;53.072;6.582;2023-07-31T02:47:33;2.55;;;1.00;;
73456;SDS011;61691;53.072;6.582;2023-07-31T02:50:00;3.65;;;1.10;;
73456;SDS011;61691;53.072;6.582;2023-07-31T02:52:27;2.95;;;1.25;;
73456;SDS011;61691;53.072;6.582;2023-07-31T02:54:53;3.28;;;1.10;;
73456;SDS011;61691;53.072;6.582;2023-07-31T02:57:20;3.58;;;1.23;;
73456;SDS011;61691;53.072;6.582;2023-07-31T02:59:47;5.28;;;1.10;;
73456;SDS011;61691;53.072;6.582;2023-07-31T03:02:13;1.73;;;1.00;;
73456;SDS011;61691;53.072;6.582;2023-07-31T03:04:40;3.35;;;1.23;;
73456;SDS011;61691;53.072;6.582;2023-07-31T03:07:07;5.60;;;1.40;;
73456;SDS011;61691;53.072;6.582;2023-07-31T03:09:34;3.60;;;1.13;;
73456;SDS011;61691;53.072;6.582;2023-07-31T03:12:00;5.05;;;1.30;;
73456;SDS011;61691;53.072;6.582;2023-07-31T03:14:27;4.15;;;1.13;;
73456;SDS011;61691;53.072;6.582;2023-07-31T03:16:54;3.65;;;1.30;;
73456;SDS011;61691;53.072;6.582;2023-07-31T03:19:21;2.30;;;1.05;;
73456;SDS011;61691;53.072;6.582;2023-07-31T03:21:47;4.72;;;1.40;;
73456;SDS011;61691;53.072;6.582;2023-07-31T03:24:14;4.55;;;1.10;;
73456;SDS011;61691;53.072;6.582;2023-07-31T03:26:41;2.30;;;0.98;;
73456;SDS011;61691;53.072;6.582;2023-07-31T03:29:08;2.55;;;0.93;;
73456;SDS011;61691;53.072;6.582;2023-07-31T03:31:35;2.63;;;0.98;;
73456;SDS011;61691;53.072;6.582;2023-07-31T03:34:01;4.65;;;1.30;;
73456;SDS011;61691;53.072;6.582;2023-07-31T03:36:28;1.50;;;0.82;;
73456;SDS011;61691;53.072;6.582;2023-07-31T03:38:55;4.70;;;1.25;;
73456;SDS011;61691;53.072;6.582;2023-07-31T03:41:22;2.80;;;1.00;;
73456;SDS011;61691;53.072;6.582;2023-07-31T03:43:49;1.38;;;0.82;;
73456;SDS011;61691;53.072;6.582;2023-07-31T03:46:22;3.30;;;1.10;;
73456;SDS011;61691;53.072;6.582;2023-07-31T03:48:50;5.10;;;1.00;;
73456;SDS011;61691;53.072;6.582;2023-07-31T03:51:17;2.05;;;0.98;;
73456;SDS011;61691;53.072;6.582;2023-07-31T03:53:44;2.90;;;0.80;;
73456;SDS011;61691;53.072;6.582;2023-07-31T03:56:11;1.90;;;0.85;;
73456;SDS011;61691;53.072;6.582;2023-07-31T03:58:37;1.00;;;0.77;;
73456;SDS011;61691;53.072;6.582;2023-07-31T04:01:04;1.70;;;0.70;;
73456;SDS011;61691;53.072;6.582;2023-07-31T04:03:31;0.75;;;0.70;;
73456;SDS011;61691;53.072;6.582;2023-07-31T04:05:58;3.30;;;0.98;;
73456;SDS011;61691;53.072;6.582;2023-07-31T04:08:24;1.95;;;0.93;;
73456;SDS011;61691;53.072;6.582;2023-07-31T04:10:51;1.83;;;0.90;;
73456;SDS011;61691;53.072;6.582;2023-07-31T04:13:18;5.35;;;1.00;;
73456;SDS011;61691;53.072;6.582;2023-07-31T04:15:48;2.45;;;1.10;;
73456;SDS011;61691;53.072;6.582;2023-07-31T04:18:17;3.17;;;1.08;;
73456;SDS011;61691;53.072;6.582;2023-07-31T04:20:44;3.70;;;1.08;;
73456;SDS011;61691;53.072;6.582;2023-07-31T04:23:11;3.03;;;1.10;;
73456;SDS011;61691;53.072;6.582;2023-07-31T04:25:38;3.63;;;1.23;;
73456;SDS011;61691;53.072;6.582;2023-07-31T04:28:05;3.17;;;0.95;;
73456;SDS011;61691;53.072;6.582;2023-07-31T04:30:31;4.25;;;1.27;;
73456;SDS011;61691;53.072;6.582;2023-07-31T04:32:58;7.72;;;1.40;;
73456;SDS011;61691;53.072;6.582;2023-07-31T04:35:25;4.20;;;1.42;;
73456;SDS011;61691;53.072;6.582;2023-07-31T04:37:52;3.55;;;1.40;;
73456;SDS011;61691;53.072;6.582;2023-07-31T04:40:19;9.80;;;1.70;;
73456;SDS011;61691;53.072;6.582;2023-07-31T04:42:47;5.95;;;1.75;;
73456;SDS011;61691;53.072;6.582;2023-07-31T04:45:13;4.80;;;1.70;;
73456;SDS011;61691;53.072;6.582;2023-07-31T04:47:40;3.95;;;1.40;;
73456;SDS011;61691;53.072;6.582;2023-07-31T04:50:07;3.78;;;1.40;;
73456;SDS011;61691;53.072;6.582;2023-07-31T04:52:34;5.78;;;1.50;;
73456;SDS011;61691;53.072;6.582;2023-07-31T04:55:01;2.85;;;1.20;;
73456;SDS011;61691;53.072;6.582;2023-07-31T04:57:27;5.72;;;1.50;;
73456;SDS011;61691;53.072;6.582;2023-07-31T04:59:54;4.93;;;1.42;;
73456;SDS011;61691;53.072;6.582;2023-07-31T05:02:21;4.90;;;1.48;;
73456;SDS011;61691;53.072;6.582;2023-07-31T05:04:48;4.03;;;1.48;;
73456;SDS011;61691;53.072;6.582;2023-07-31T05:07:14;6.45;;;1.73;;
73456;SDS011;61691;53.072;6.582;2023-07-31T05:09:41;4.65;;;1.48;;
73456;SDS011;61691;53.072;6.582;2023-07-31T05:12:08;8.35;;;1.70;;
73456;SDS011;61691;53.072;6.582;2023-07-31T05:14:35;5.57;;;1.52;;
73456;SDS011;61691;53.072;6.582;2023-07-31T05:17:02;6.03;;;1.67;;
73456;SDS011;61691;53.072;6.582;2023-07-31T05:19:29;7.20;;;1.70;;
73456;SDS011;61691;53.072;6.582;2023-07-31T05:21:55;6.25;;;1.50;;
73456;SDS011;61691;53.072;6.582;2023-07-31T05:24:22;4.95;;;1.38;;
73456;SDS011;61691;53.072;6.582;2023-07-31T05:26:48;7.72;;;1.75;;
73456;SDS011;61691;53.072;6.582;2023-07-31T05:29:15;8.40;;;1.65;;
73456;SDS011;61691;53.072;6.582;2023-07-31T05:31:43;7.53;;;1.80;;
73456;SDS011;61691;53.072;6.582;2023-07-31T05:34:09;6.18;;;1.83;;
73456;SDS011;61691;53.072;6.582;2023-07-31T05:36:36;10.15;;;2.28;;
73456;SDS011;61691;53.072;6.582;2023-07-31T05:39:03;9.85;;;1.80;;
73456;SDS011;61691;53.072;6.582;2023-07-31T05:41:33;9.02;;;1.90;;
73456;SDS011;61691;53.072;6.582;2023-07-31T05:44:01;7.82;;;1.67;;
73456;SDS011;61691;53.072;6.582;2023-07-31T05:46:28;8.88;;;1.88;;
73456;SDS011;61691;53.072;6.582;2023-07-31T05:48:55;8.85;;;2.05;;
73456;SDS011;61691;53.072;6.582;2023-07-31T05:51:22;9.35;;;2.10;;
73456;SDS011;61691;53.072;6.582;2023-07-31T05:53:48;8.82;;;2.00;;
73456;SDS011;61691;53.072;6.582;2023-07-31T05:56:15;10.05;;;2.38;;
73456;SDS011;61691;53.072;6.582;2023-07-31T05:58:42;11.05;;;2.30;;
73456;SDS011;61691;53.072;6.582;2023-07-31T06:01:09;13.05;;;2.60;;
73456;SDS011;61691;53.072;6.582;2023-07-31T06:03:35;15.13;;;3.17;;
73456;SDS011;61691;53.072;6.582;2023-07-31T06:06:02;16.90;;;3.13;;
73456;SDS011;61691;53.072;6.582;2023-07-31T06:08:29;19.15;;;4.10;;
73456;SDS011;61691;53.072;6.582;2023-07-31T06:10:56;21.73;;;5.45;;
73456;SDS011;61691;53.072;6.582;2023-07-31T06:13:22;21.52;;;5.03;;
73456;SDS011;61691;53.072;6.582;2023-07-31T06:15:49;24.10;;;6.07;;
73456;SDS011;61691;53.072;6.582;2023-07-31T06:18:17;22.20;;;5.90;;
73456;SDS011;61691;53.072;6.582;2023-07-31T06:20:43;23.05;;;6.03;;
73456;SDS011;61691;53.072;6.582;2023-07-31T06:23:10;24.30;;;6.30;;
73456;SDS011;61691;53.072;6.582;2023-07-31T06:25:37;24.15;;;6.20;;
73456;SDS011;61691;53.072;6.582;2023-07-31T06:28:03;27.95;;;6.57;;
73456;SDS011;61691;53.072;6.582;2023-07-31T06:30:30;26.95;;;6.93;;
73456;SDS011;61691;53.072;6.582;2023-07-31T06:32:57;24.88;;;6.40;;
73456;SDS011;61691;53.072;6.582;2023-07-31T06:35:24;24.92;;;6.50;;
73456;SDS011;61691;53.072;6.582;2023-07-31T06:37:50;24.05;;;6.40;;
73456;SDS011;61691;53.072;6.582;2023-07-31T06:40:17;24.10;;;6.07;;
73456;SDS011;61691;53.072;6.582;2023-07-31T06:42:45;25.35;;;6.82;;
73456;SDS011;61691;53.072;6.582;2023-07-31T06:45:12;23.95;;;6.55;;
73456;SDS011;61691;53.072;6.582;2023-07-31T06:47:38;24.30;;;6.38;;
73456;SDS011;61691;53.072;6.582;2023-07-31T06:50:05;26.92;;;6.18;;
73456;SDS011;61691;53.072;6.582;2023-07-31T06:52:33;20.88;;;5.50;;
73456;SDS011;61691;53.072;6.582;2023-07-31T06:55:15;24.30;;;6.20;;
73456;SDS011;61691;53.072;6.582;2023-07-31T06:57:47;23.20;;;5.80;;
73456;SDS011;61691;53.072;6.582;2023-07-31T07:00:14;25.65;;;5.47;;
73456;SDS011;61691;53.072;6.582;2023-07-31T07:02:41;24.30;;;5.47;;
73456;SDS011;61691;53.072;6.582;2023-07-31T07:05:08;22.25;;;5.85;;
73456;SDS011;61691;53.072;6.582;2023-07-31T07:07:35;23.67;;;5.38;;
73456;SDS011;61691;53.072;6.582;2023-07-31T07:10:02;24.67;;;6.53;;
73456;SDS011;61691;53.072;6.582;2023-07-31T07:12:30;22.40;;;5.68;;
73456;SDS011;61691;53.072;6.582;2023-07-31T07:14:57;23.33;;;6.53;;
73456;SDS011;61691;53.072;6.582;2023-07-31T07:17:24;23.50;;;5.97;;
73456;SDS011;61691;53.072;6.582;2023-07-31T07:19:52;24.23;;;6.05;;
73456;SDS011;61691;53.072;6.582;2023-07-31T07:22:19;24.08;;;6.28;;
73456;SDS011;61691;53.072;6.582;2023-07-31T07:24:45;22.27;;;5.70;;
73456;SDS011;61691;53.072;6.582;2023-07-31T07:27:12;25.05;;;5.90;;
73456;SDS011;61691;53.072;6.582;2023-07-31T07:29:39;19.95;;;5.05;;
73456;SDS011;61691;53.072;6.582;2023-07-31T07:32:06;20.13;;;5.40;;
73456;SDS011;61691;53.072;6.582;2023-07-31T07:34:33;19.38;;;4.68;;
73456;SDS011;61691;53.072;6.582;2023-07-31T07:36:59;18.38;;;4.65;;
73456;SDS011;61691;53.072;6.582;2023-07-31T07:39:26;16.23;;;3.90;;
73456;SDS011;61691;53.072;6.582;2023-07-31T07:41:53;14.93;;;3.38;;
73456;SDS011;61691;53.072;6.582;2023-07-31T07:44:20;14.55;;;3.35;;
73456;SDS011;61691;53.072;6.582;2023-07-31T07:46:47;12.75;;;3.00;;
73456;SDS011;61691;53.072;6.582;2023-07-31T07:49:14;13.43;;;2.95;;
73456;SDS011;61691;53.072;6.582;2023-07-31T07:51:40;17.13;;;3.42;;
73456;SDS011;61691;53.072;6.582;2023-07-31T07:54:07;12.98;;;2.95;;
73456;SDS011;61691;53.072;6.582;2023-07-31T07:56:34;13.68;;;3.30;;
73456;SDS011;61691;53.072;6.582;2023-07-31T07:59:03;15.82;;;3.35;;
73456;SDS011;61691;53.072;6.582;2023-07-31T08:01:30;15.45;;;3.15;;
73456;SDS011;61691;53.072;6.582;2023-07-31T08:03:57;13.57;;;2.83;;
73456;SDS011;61691;53.072;6.582;2023-07-31T08:06:24;11.90;;;2.80;;
73456;SDS011;61691;53.072;6.582;2023-07-31T08:08:51;12.63;;;2.42;;
73456;SDS011;61691;53.072;6.582;2023-07-31T08:11:17;15.60;;;3.00;;
73456;SDS011;61691;53.072;6.582;2023-07-31T08:13:44;14.00;;;2.80;;
73456;SDS011;61691;53.072;6.582;2023-07-31T08:16:11;10.95;;;2.42;;
73456;SDS011;61691;53.072;6.582;2023-07-31T08:18:38;11.35;;;2.50;;
73456;SDS011;61691;53.072;6.582;2023-07-31T08:21:07;10.70;;;2.33;;
73456;SDS011;61691;53.072;6.582;2023-07-31T08:23:33;11.48;;;2.60;;
73456;SDS011;61691;53.072;6.582;2023-07-31T08:26:00;9.75;;;2.30;;
73456;SDS011;61691;53.072;6.582;2023-07-31T08:28:28;14.65;;;2.60;;
73456;SDS011;61691;53.072;6.582;2023-07-31T08:30:55;13.27;;;3.03;;
73456;SDS011;61691;53.072;6.582;2023-07-31T08:33:22;10.38;;;2.65;;
73456;SDS011;61691;53.072;6.582;2023-07-31T08:35:49;12.57;;;2.60;;
73456;SDS011;61691;53.072;6.582;2023-07-31T08:38:16;9.75;;;2.50;;
73456;SDS011;61691;53.072;6.582;2023-07-31T08:40:42;10.10;;;2.30;;
73456;SDS011;61691;53.072;6.582;2023-07-31T08:43:09;11.40;;;2.13;;
73456;SDS011;61691;53.072;6.582;2023-07-31T08:45:36;8.50;;;2.17;;
73456;SDS011;61691;53.072;6.582;2023-07-31T08:48:03;10.73;;;2.33;;
73456;SDS011;61691;53.072;6.582;2023-07-31T08:50:30;10.35;;;2.30;;
73456;SDS011;61691;53.072;6.582;2023-07-31T08:52:57;9.80;;;2.13;;
73456;SDS011;61691;53.072;6.582;2023-07-31T08:55:24;7.90;;;1.90;;
73456;SDS011;61691;53.072;6.582;2023-07-31T08:57:52;6.90;;;1.85;;
73456;SDS011;61691;53.072;6.582;2023-07-31T09:00:19;7.22;;;1.90;;
73456;SDS011;61691;53.072;6.582;2023-07-31T09:02:48;8.40;;;2.00;;
73456;SDS011;61691;53.072;6.582;2023-07-31T09:05:22;6.70;;;1.80;;
73456;SDS011;61691;53.072;6.582;2023-07-31T09:07:50;7.68;;;1.80;;
73456;SDS011;61691;53.072;6.582;2023-07-31T09:10:17;4.65;;;1.67;;
73456;SDS011;61691;53.072;6.582;2023-07-31T09:12:44;6.15;;;1.77;;
73456;SDS011;61691;53.072;6.582;2023-07-31T09:15:12;7.20;;;1.70;;
73456;SDS011;61691;53.072;6.582;2023-07-31T09:17:59;4.70;;;1.42;;
73456;SDS011;61691;53.072;6.582;2023-07-31T09:20:28;5.50;;;1.52;;
73456;SDS011;61691;53.072;6.582;2023-07-31T09:22:55;3.20;;;1.45;;
73456;SDS011;61691;53.072;6.582;2023-07-31T09:25:23;4.70;;;1.60;;
73456;SDS011;61691;53.072;6.582;2023-07-31T09:30:25;3.38;;;1.40;;
73456;SDS011;61691;53.072;6.582;2023-07-31T09:33:05;4.82;;;1.45;;
73456;SDS011;61691;53.072;6.582;2023-07-31T09:35:34;3.28;;;1.27;;
73456;SDS011;61691;53.072;6.582;2023-07-31T09:38:12;4.95;;;1.30;;
73456;SDS011;61691;53.072;6.582;2023-07-31T09:40:42;2.30;;;1.10;;
73456;SDS011;61691;53.072;6.582;2023-07-31T09:43:18;3.75;;;1.40;;
73456;SDS011;61691;53.072;6.582;2023-07-31T09:45:47;1.40;;;1.00;;
73456;SDS011;61691;53.072;6.582;2023-07-31T09:48:15;1.70;;;0.93;;
73456;SDS011;61691;53.072;6.582;2023-07-31T09:50:47;1.67;;;1.00;;
73456;SDS011;61691;53.072;6.582;2023-07-31T09:53:15;4.75;;;1.20;;
73456;SDS011;61691;53.072;6.582;2023-07-31T09:55:43;1.42;;;0.98;;
73456;SDS011;61691;53.072;6.582;2023-07-31T09:58:11;1.70;;;0.63;;
73456;SDS011;61691;53.072;6.582;2023-07-31T10:00:38;1.50;;;0.70;;
73456;SDS011;61691;53.072;6.582;2023-07-31T10:03:09;1.92;;;0.73;;
73456;SDS011;61691;53.072;6.582;2023-07-31T10:05:42;1.90;;;0.73;;
73456;SDS011;61691;53.072;6.582;2023-07-31T10:08:12;2.35;;;0.85;;
73456;SDS011;61691;53.072;6.582;2023-07-31T10:10:42;2.77;;;1.00;;
73456;SDS011;61691;53.072;6.582;2023-07-31T10:13:10;2.13;;;1.00;;
73456;SDS011;61691;53.072;6.582;2023-07-31T10:15:38;1.55;;;0.80;;
73456;SDS011;61691;53.072;6.582;2023-07-31T10:18:08;0.95;;;0.90;;
73456;SDS011;61691;53.072;6.582;2023-07-31T10:20:35;1.80;;;1.00;;
73456;SDS011;61691;53.072;6.582;2023-07-31T10:23:03;1.23;;;0.73;;
73456;SDS011;61691;53.072;6.582;2023-07-31T10:25:30;0.85;;;0.80;;
73456;SDS011;61691;53.072;6.582;2023-07-31T10:27:58;1.58;;;0.90;;
73456;SDS011;61691;53.072;6.582;2023-07-31T10:30:26;1.20;;;0.73;;
73456;SDS011;61691;53.072;6.582;2023-07-31T10:32:56;3.50;;;1.20;;
73456;SDS011;61691;53.072;6.582;2023-07-31T10:35:24;1.33;;;0.65;;
73456;SDS011;61691;53.072;6.582;2023-07-31T10:37:51;2.80;;;0.95;;
73456;SDS011;61691;53.072;6.582;2023-07-31T10:40:19;5.13;;;0.93;;
73456;SDS011;61691;53.072;6.582;2023-07-31T10:42:51;2.10;;;0.90;;
73456;SDS011;61691;53.072;6.582;2023-07-31T10:45:38;1.42;;;0.80;;
73456;SDS011;61691;53.072;6.582;2023-07-31T10:48:15;2.55;;;0.90;;
73456;SDS011;61691;53.072;6.582;2023-07-31T10:50:49;2.50;;;0.68;;
73456;SDS011;61691;53.072;6.582;2023-07-31T10:53:25;0.60;;;0.40;;
73456;SDS011;61691;53.072;6.582;2023-07-31T10:55:53;1.55;;;0.52;;
73456;SDS011;61691;53.072;6.582;2023-07-31T10:58:25;2.30;;;0.80;;
73456;SDS011;61691;53.072;6.582;2023-07-31T11:00:56;2.33;;;0.60;;
73456;SDS011;61691;53.072;6.582;2023-07-31T11:03:25;0.70;;;0.50;;
73456;SDS011;61691;53.072;6.582;2023-07-31T11:06:02;1.60;;;0.80;;
73456;SDS011;61691;53.072;6.582;2023-07-31T11:08:31;3.83;;;0.80;;
73456;SDS011;61691;53.072;6.582;2023-07-31T11:13:29;3.15;;;1.00;;
73456;SDS011;61691;53.072;6.582;2023-07-31T11:16:00;2.00;;;0.40;;
73456;SDS011;61691;53.072;6.582;2023-07-31T11:18:27;1.60;;;0.52;;
73456;SDS011;61691;53.072;6.582;2023-07-31T11:20:53;0.93;;;0.45;;
73456;SDS011;61691;53.072;6.582;2023-07-31T11:23:21;3.88;;;0.90;;
73456;SDS011;61691;53.072;6.582;2023-07-31T11:25:49;10.10;;;1.30;;
73456;SDS011;61691;53.072;6.582;2023-07-31T11:28:17;6.03;;;1.25;;
73456;SDS011;61691;53.072;6.582;2023-07-31T11:30:45;3.08;;;0.60;;
73456;SDS011;61691;53.072;6.582;2023-07-31T11:33:13;1.30;;;0.57;;
73456;SDS011;61691;53.072;6.582;2023-07-31T11:35:49;0.60;;;0.50;;
73456;SDS011;61691;53.072;6.582;2023-07-31T11:38:26;1.00;;;0.45;;
73456;SDS011;61691;53.072;6.582;2023-07-31T11:40:55;1.58;;;0.52;;
73456;SDS011;61691;53.072;6.582;2023-07-31T11:43:24;1.20;;;0.60;;
73456;SDS011;61691;53.072;6.582;2023-07-31T11:45:51;4.25;;;0.63;;
73456;SDS011;61691;53.072;6.582;2023-07-31T11:48:27;2.83;;;0.68;;
73456;SDS011;61691;53.072;6.582;2023-07-31T11:51:00;3.35;;;0.85;;
73456;SDS011;61691;53.072;6.582;2023-07-31T11:56:22;1.83;;;0.73;;
73456;SDS011;61691;53.072;6.582;2023-07-31T11:58:58;5.85;;;0.90;;
73456;SDS011;61691;53.072;6.582;2023-07-31T12:01:27;1.90;;;0.98;;
73456;SDS011;61691;53.072;6.582;2023-07-31T12:03:54;3.13;;;0.80;;
73456;SDS011;61691;53.072;6.582;2023-07-31T12:06:32;3.63;;;0.88;;
73456;SDS011;61691;53.072;6.582;2023-07-31T12:09:03;4.97;;;1.00;;
73456;SDS011;61691;53.072;6.582;2023-07-31T12:11:31;1.98;;;0.82;;
73456;SDS011;61691;53.072;6.582;2023-07-31T12:14:08;4.47;;;1.20;;
73456;SDS011;61691;53.072;6.582;2023-07-31T12:16:46;2.22;;;0.90;;
73456;SDS011;61691;53.072;6.582;2023-07-31T12:19:13;4.05;;;1.27;;
73456;SDS011;61691;53.072;6.582;2023-07-31T12:21:40;3.58;;;1.00;;
73456;SDS011;61691;53.072;6.582;2023-07-31T12:24:06;3.30;;;0.98;;
73456;SDS011;61691;53.072;6.582;2023-07-31T12:26:34;4.30;;;1.48;;
73456;SDS011;61691;53.072;6.582;2023-07-31T12:29:01;3.28;;;1.10;;
73456;SDS011;61691;53.072;6.582;2023-07-31T12:31:28;4.10;;;1.30;;
73456;SDS011;61691;53.072;6.582;2023-07-31T12:33:55;7.47;;;1.30;;
73456;SDS011;61691;53.072;6.582;2023-07-31T12:36:23;7.50;;;1.58;;
73456;SDS011;61691;53.072;6.582;2023-07-31T12:38:50;8.10;;;1.45;;
73456;SDS011;61691;53.072;6.582;2023-07-31T12:41:18;5.53;;;1.55;;
73456;SDS011;61691;53.072;6.582;2023-07-31T12:43:45;6.93;;;1.58;;
73456;SDS011;61691;53.072;6.582;2023-07-31T12:46:12;7.80;;;1.73;;
73456;SDS011;61691;53.072;6.582;2023-07-31T12:48:40;12.65;;;1.90;;
73456;SDS011;61691;53.072;6.582;2023-07-31T12:51:07;8.73;;;1.55;;
73456;SDS011;61691;53.072;6.582;2023-07-31T12:53:34;6.50;;;1.33;;
73456;SDS011;61691;53.072;6.582;2023-07-31T12:56:01;8.48;;;1.90;;
73456;SDS011;61691;53.072;6.582;2023-07-31T12:58:29;8.20;;;1.63;;
73456;SDS011;61691;53.072;6.582;2023-07-31T13:00:55;6.68;;;1.70;;
73456;SDS011;61691;53.072;6.582;2023-07-31T13:03:23;6.82;;;1.60;;
73456;SDS011;61691;53.072;6.582;2023-07-31T15:12:53;15.60;;;2.83;;
73456;SDS011;61691;53.072;6.582;2023-07-31T15:15:20;14.32;;;3.30;;
73456;SDS011;61691;53.072;6.582;2023-07-31T15:17:47;15.02;;;2.90;;
73456;SDS011;61691;53.072;6.582;2023-07-31T15:20:13;13.50;;;2.88;;
73456;SDS011;61691;53.072;6.582;2023-07-31T15:22:40;15.70;;;3.10;;
73456;SDS011;61691;53.072;6.582;2023-07-31T15:25:07;15.80;;;3.20;;
73456;SDS011;61691;53.072;6.582;2023-07-31T15:27:34;15.40;;;3.17;;
73456;SDS011;61691;53.072;6.582;2023-07-31T15:30:01;16.83;;;3.08;;
73456;SDS011;61691;53.072;6.582;2023-07-31T15:32:30;15.50;;;2.78;;
73456;SDS011;61691;53.072;6.582;2023-07-31T15:34:57;13.98;;;3.10;;
73456;SDS011;61691;53.072;6.582;2023-07-31T15:37:24;17.83;;;3.10;;
73456;SDS011;61691;53.072;6.582;2023-07-31T15:39:51;14.35;;;2.65;;
73456;SDS011;61691;53.072;6.582;2023-07-31T15:42:17;16.75;;;2.75;;
73456;SDS011;61691;53.072;6.582;2023-07-31T15:44:44;17.08;;;3.25;;
73456;SDS011;61691;53.072;6.582;2023-07-31T15:47:11;15.93;;;2.83;;
73456;SDS011;61691;53.072;6.582;2023-07-31T15:49:37;13.93;;;2.67;;
73456;SDS011;61691;53.072;6.582;2023-07-31T15:52:04;14.82;;;2.90;;
73456;SDS011;61691;53.072;6.582;2023-07-31T15:54:31;17.00;;;2.85;;
73456;SDS011;61691;53.072;6.582;2023-07-31T15:56:58;15.73;;;2.95;;
73456;SDS011;61691;53.072;6.582;2023-07-31T15:59:25;12.10;;;2.30;;
73456;SDS011;61691;53.072;6.582;2023-07-31T16:01:52;14.93;;;2.50;;
73456;SDS011;61691;53.072;6.582;2023-07-31T16:04:19;14.18;;;2.60;;
73456;SDS011;61691;53.072;6.582;2023-07-31T16:06:46;12.90;;;2.85;;
73456;SDS011;61691;53.072;6.582;2023-07-31T16:09:13;13.48;;;2.42;;
73456;SDS011;61691;53.072;6.582;2023-07-31T16:11:40;16.55;;;2.80;;
73456;SDS011;61691;53.072;6.582;2023-07-31T16:14:08;13.38;;;2.60;;
73456;SDS011;61691;53.072;6.582;2023-07-31T16:16:35;12.45;;;2.40;;
73456;SDS011;61691;53.072;6.582;2023-07-31T16:19:02;13.07;;;2.53;;
73456;SDS011;61691;53.072;6.582;2023-07-31T16:21:30;13.32;;;3.05;;
73456;SDS011;61691;53.072;6.582;2023-07-31T16:23:56;16.02;;;2.53;;
73456;SDS011;61691;53.072;6.582;2023-07-31T16:26:23;15.70;;;2.65;;
73456;SDS011;61691;53.072;6.582;2023-07-31T16:28:50;12.80;;;2.33;;
73456;SDS011;61691;53.072;6.582;2023-07-31T16:31:17;12.25;;;2.63;;
73456;SDS011;61691;53.072;6.582;2023-07-31T16:33:44;15.48;;;2.67;;
73456;SDS011;61691;53.072;6.582;2023-07-31T16:36:10;11.65;;;2.45;;
73456;SDS011;61691;53.072;6.582;2023-07-31T16:38:37;14.95;;;2.58;;
73456;SDS011;61691;53.072;6.582;2023-07-31T16:41:06;12.32;;;2.30;;
73456;SDS011;61691;53.072;6.582;2023-07-31T16:43:33;15.98;;;2.47;;
73456;SDS011;61691;53.072;6.582;2023-07-31T16:46:00;14.98;;;2.70;;
73456;SDS011;61691;53.072;6.582;2023-07-31T16:48:27;12.60;;;2.65;;
73456;SDS011;61691;53.072;6.582;2023-07-31T16:50:54;12.38;;;2.47;;
73456;SDS011;61691;53.072;6.582;2023-07-31T16:53:20;14.30;;;2.70;;
73456;SDS011;61691;53.072;6.582;2023-07-31T16:55:47;15.80;;;2.90;;
73456;SDS011;61691;53.072;6.582;2023-07-31T16:58:14;15.30;;;2.90;;
73456;SDS011;61691;53.072;6.582;2023-07-31T17:00:40;15.10;;;2.90;;
73456;SDS011;61691;53.072;6.582;2023-07-31T17:03:07;15.18;;;2.60;;
73456;SDS011;61691;53.072;6.582;2023-07-31T17:05:34;10.82;;;2.13;;
73456;SDS011;61691;53.072;6.582;2023-07-31T17:08:02;10.75;;;2.20;;
73456;SDS011;61691;53.072;6.582;2023-07-31T17:10:29;12.25;;;2.42;;
73456;SDS011;61691;53.072;6.582;2023-07-31T17:12:55;13.50;;;2.30;;